Terminal Aerodrome Forecast
Issued by NWS

Home | Current Version | Previous Version | Text Only | Print | Product List | Glossary On
Versions: 1 2 3 4 5 6 7 8 9 10 11 12 13 14 15 16 17
000
FTUS43 KAPX 231138
TAFAPN
TAF
KAPN 231138Z 2312/2412 14005KT 1SM BR OVC003 WS015/20025KT
     FM231400 18008KT 5SM -DZ BR OVC008 WS015/20030KT
     FM240100 15009KT 4SM RA BR OVC006 WS015/18038KT=

USA.gov is the U.S. government's official web portal to all federal, state and local government web resources and services.